<?xml version="1.0" encoding="UTF-8" standalone="no" ?>
<gpx xmlns="http://www.topografix.com/GPX/1/1" xmlns:xsi="http://www.w3.org/2001/XMLSchema-instance" xsi:schemaLocation="http://www.topografix.com/GPX/1/1 http://www.topografix.com/GPX/1/1/gpx.xsd" version="1.1" creator="VisuGPX - https://www.visugpx.com">
  <metadata>
    <name>LA VALLEE DU COINDRE ET LE PLAN D'EAU DE ST CLEMENT 03250</name>
    <desc><![CDATA[Le circuit n'est pas balisé à faire avec la carte en main ou GPS.]]></desc>
  </metadata>
  <wpt lat="46.07599" lon="3.69921">
    <ele>334.3</ele>
    <name><![CDATA[]]></name>
    <type><![CDATA[Point de départ]]></type>
  </wpt>
  <wpt lat="46.0755" lon="3.69916">
    <ele>433.44</ele>
    <name><![CDATA[]]></name>
    <desc><![CDATA[<p><br /><h3>Nom: Segment: 1</h3><br />Heure de départ: 12:49 22 oct. 2021<br/>Heure d'arrivée: 15:04 22 oct. 2021<br/>Distance: 10km (02:15)<br/>Temps déplacement: 01:48<br/>Vitesse moyenne: 4,43 km/h<br/>Vitesse moyenne mouv.: 5,52 km/h<br/>Vitesse Max.: 8,18 km/h<br/>Altitude minimale: 402 m<br/>Altitude maximale: 620 m<br/>Vitesse de montée: 443,8 m/h<br/>Vitesse de descente: 396 m/h<br/>Gain d'altitude: 390 m<br/>Perte d'altitude: 285 m<br/>Temps de montée: 00:52<br/>Temps de descente: 00:43<br/></p>]]></desc>
    <type><![CDATA[Point d'arrivée]]></type>
  </wpt>
  <trk>
    <name><![CDATA[2021-10-22 12:49:05]]></name>
    <desc><![CDATA[<p>Heure de départ: 12:49 22 oct. 2021<br/>Heure d'arrivée: 15:04 22 oct. 2021<br/>Distance: 10 km (02:15)<br/>Temps déplacement: 01:48<br/>Vitesse moyenne: 4,43 km/h<br/>Vitesse moyenne mouv.: 5,52 km/h<br/>Vitesse Max.: 8,18 km/h<br/>Altitude minimale: 402 m<br/>Altitude maximale: 620 m<br/>Vitesse de montée: 443,8 m/h<br/>Vitesse de descente: 396 m/h<br/>Gain d'altitude: 390 m<br/>Perte d'altitude: 285 m<br/>Temps de montée: 00:52<br/>Temps de descente: 00:43<br/></p><hr align="center" width="480" style="height: 2px; width: 517px"/>]]></desc>
    <trkseg>
      <trkpt lat="46.07599" lon="3.69921">
        <ele>334.3</ele>
        <time>2021-10-22T10:49:05.000Z</time>
      </trkpt>
      <trkpt lat="46.07587" lon="3.69902">
        <ele>360.02</ele>
        <time>2021-10-22T10:50:27.000Z</time>
      </trkpt>
      <trkpt lat="46.07582" lon="3.69876">
        <ele>366.65</ele>
        <time>2021-10-22T10:50:40.000Z</time>
      </trkpt>
      <trkpt lat="46.07592" lon="3.69854">
        <ele>377.73</ele>
        <time>2021-10-22T10:50:54.000Z</time>
      </trkpt>
      <trkpt lat="46.07611" lon="3.69848">
        <ele>390.64</ele>
        <time>2021-10-22T10:51:18.000Z</time>
      </trkpt>
      <trkpt lat="46.07629" lon="3.69851">
        <ele>407.12</ele>
        <time>2021-10-22T10:51:39.000Z</time>
      </trkpt>
      <trkpt lat="46.07647" lon="3.69851">
        <ele>418.05</ele>
        <time>2021-10-22T10:51:58.000Z</time>
      </trkpt>
      <trkpt lat="46.07666" lon="3.69848">
        <ele>427.15</ele>
        <time>2021-10-22T10:52:16.000Z</time>
      </trkpt>
      <trkpt lat="46.07684" lon="3.6984">
        <ele>433.88</ele>
        <time>2021-10-22T10:52:32.000Z</time>
      </trkpt>
      <trkpt lat="46.07702" lon="3.69832">
        <ele>438.69</ele>
        <time>2021-10-22T10:52:46.000Z</time>
      </trkpt>
      <trkpt lat="46.0772" lon="3.69824">
        <ele>440.92</ele>
        <time>2021-10-22T10:53:00.000Z</time>
      </trkpt>
      <trkpt lat="46.07736" lon="3.6981">
        <ele>444.57</ele>
        <time>2021-10-22T10:53:20.000Z</time>
      </trkpt>
      <trkpt lat="46.07752" lon="3.69794">
        <ele>444.77</ele>
        <time>2021-10-22T10:53:32.000Z</time>
      </trkpt>
      <trkpt lat="46.07767" lon="3.69779">
        <ele>448.76</ele>
        <time>2021-10-22T10:53:50.000Z</time>
      </trkpt>
      <trkpt lat="46.07785" lon="3.69774">
        <ele>450.22</ele>
        <time>2021-10-22T10:54:02.000Z</time>
      </trkpt>
      <trkpt lat="46.07802" lon="3.69763">
        <ele>451.13</ele>
        <time>2021-10-22T10:54:18.000Z</time>
      </trkpt>
      <trkpt lat="46.0782" lon="3.69753">
        <ele>451.71</ele>
        <time>2021-10-22T10:54:30.000Z</time>
      </trkpt>
      <trkpt lat="46.07837" lon="3.69743">
        <ele>449.35</ele>
        <time>2021-10-22T10:54:41.000Z</time>
      </trkpt>
      <trkpt lat="46.07852" lon="3.69728">
        <ele>444.02</ele>
        <time>2021-10-22T10:54:58.000Z</time>
      </trkpt>
      <trkpt lat="46.07866" lon="3.69711">
        <ele>439.18</ele>
        <time>2021-10-22T10:55:10.000Z</time>
      </trkpt>
      <trkpt lat="46.07883" lon="3.697">
        <ele>434.08</ele>
        <time>2021-10-22T10:55:20.000Z</time>
      </trkpt>
      <trkpt lat="46.07889" lon="3.69675">
        <ele>429.15</ele>
        <time>2021-10-22T10:55:32.000Z</time>
      </trkpt>
      <trkpt lat="46.07897" lon="3.69651">
        <ele>426.53</ele>
        <time>2021-10-22T10:55:48.000Z</time>
      </trkpt>
      <trkpt lat="46.07908" lon="3.69629">
        <ele>426.44</ele>
        <time>2021-10-22T10:56:02.000Z</time>
      </trkpt>
      <trkpt lat="46.0792" lon="3.69609">
        <ele>424.86</ele>
        <time>2021-10-22T10:56:18.000Z</time>
      </trkpt>
      <trkpt lat="46.07932" lon="3.69587">
        <ele>425.31</ele>
        <time>2021-10-22T10:56:31.000Z</time>
      </trkpt>
      <trkpt lat="46.07947" lon="3.6957">
        <ele>425.62</ele>
        <time>2021-10-22T10:56:47.000Z</time>
      </trkpt>
      <trkpt lat="46.0796" lon="3.6955">
        <ele>425.26</ele>
        <time>2021-10-22T10:57:00.000Z</time>
      </trkpt>
      <trkpt lat="46.07961" lon="3.69523">
        <ele>425.44</ele>
        <time>2021-10-22T10:57:15.000Z</time>
      </trkpt>
      <trkpt lat="46.07955" lon="3.69497">
        <ele>419.4</ele>
        <time>2021-10-22T10:57:27.000Z</time>
      </trkpt>
      <trkpt lat="46.07971" lon="3.69482">
        <ele>414.53</ele>
        <time>2021-10-22T10:57:41.000Z</time>
      </trkpt>
      <trkpt lat="46.0799" lon="3.69485">
        <ele>416.85</ele>
        <time>2021-10-22T10:57:55.000Z</time>
      </trkpt>
      <trkpt lat="46.08008" lon="3.69491">
        <ele>418.85</ele>
        <time>2021-10-22T10:58:12.000Z</time>
      </trkpt>
      <trkpt lat="46.08026" lon="3.69485">
        <ele>420.01</ele>
        <time>2021-10-22T10:58:27.000Z</time>
      </trkpt>
      <trkpt lat="46.08043" lon="3.69473">
        <ele>422.57</ele>
        <time>2021-10-22T10:58:43.000Z</time>
      </trkpt>
      <trkpt lat="46.08055" lon="3.69454">
        <ele>423.75</ele>
        <time>2021-10-22T10:58:57.000Z</time>
      </trkpt>
      <trkpt lat="46.08065" lon="3.69432">
        <ele>423.25</ele>
        <time>2021-10-22T10:59:11.000Z</time>
      </trkpt>
      <trkpt lat="46.08072" lon="3.69406">
        <ele>423.44</ele>
        <time>2021-10-22T10:59:26.000Z</time>
      </trkpt>
      <trkpt lat="46.0808" lon="3.69382">
        <ele>423.14</ele>
        <time>2021-10-22T10:59:43.000Z</time>
      </trkpt>
      <trkpt lat="46.08085" lon="3.69357">
        <ele>422.62</ele>
        <time>2021-10-22T10:59:57.000Z</time>
      </trkpt>
      <trkpt lat="46.08092" lon="3.69332">
        <ele>423.4</ele>
        <time>2021-10-22T11:00:11.000Z</time>
      </trkpt>
      <trkpt lat="46.08096" lon="3.69306">
        <ele>424.34</ele>
        <time>2021-10-22T11:00:25.000Z</time>
      </trkpt>
      <trkpt lat="46.08097" lon="3.6928">
        <ele>429.48</ele>
        <time>2021-10-22T11:00:52.000Z</time>
      </trkpt>
      <trkpt lat="46.08105" lon="3.69256">
        <ele>432.46</ele>
        <time>2021-10-22T11:01:07.000Z</time>
      </trkpt>
      <trkpt lat="46.08112" lon="3.69232">
        <ele>434.74</ele>
        <time>2021-10-22T11:01:21.000Z</time>
      </trkpt>
      <trkpt lat="46.0811" lon="3.69206">
        <ele>435.28</ele>
        <time>2021-10-22T11:01:38.000Z</time>
      </trkpt>
      <trkpt lat="46.08112" lon="3.69179">
        <ele>429.17</ele>
        <time>2021-10-22T11:02:10.000Z</time>
      </trkpt>
      <trkpt lat="46.0811" lon="3.6915">
        <ele>430.88</ele>
        <time>2021-10-22T11:02:22.000Z</time>
      </trkpt>
      <trkpt lat="46.08107" lon="3.69124">
        <ele>432.4</ele>
        <time>2021-10-22T11:02:35.000Z</time>
      </trkpt>
      <trkpt lat="46.08125" lon="3.69125">
        <ele>436.86</ele>
        <time>2021-10-22T11:02:54.000Z</time>
      </trkpt>
      <trkpt lat="46.08142" lon="3.69136">
        <ele>438.2</ele>
        <time>2021-10-22T11:03:10.000Z</time>
      </trkpt>
      <trkpt lat="46.08159" lon="3.69125">
        <ele>437.68</ele>
        <time>2021-10-22T11:03:25.000Z</time>
      </trkpt>
      <trkpt lat="46.08177" lon="3.69116">
        <ele>437.41</ele>
        <time>2021-10-22T11:03:40.000Z</time>
      </trkpt>
      <trkpt lat="46.08184" lon="3.69092">
        <ele>435.31</ele>
        <time>2021-10-22T11:03:59.000Z</time>
      </trkpt>
      <trkpt lat="46.08179" lon="3.69067">
        <ele>435.34</ele>
        <time>2021-10-22T11:04:15.000Z</time>
      </trkpt>
      <trkpt lat="46.0819" lon="3.69045">
        <ele>433.9</ele>
        <time>2021-10-22T11:04:32.000Z</time>
      </trkpt>
      <trkpt lat="46.08209" lon="3.69039">
        <ele>429.78</ele>
        <time>2021-10-22T11:04:46.000Z</time>
      </trkpt>
      <trkpt lat="46.08226" lon="3.6903">
        <ele>424.86</ele>
        <time>2021-10-22T11:05:04.000Z</time>
      </trkpt>
      <trkpt lat="46.08245" lon="3.69027">
        <ele>422.85</ele>
        <time>2021-10-22T11:05:16.000Z</time>
      </trkpt>
      <trkpt lat="46.08264" lon="3.69022">
        <ele>420.7</ele>
        <time>2021-10-22T11:05:27.000Z</time>
      </trkpt>
      <trkpt lat="46.08266" lon="3.68994">
        <ele>420.44</ele>
        <time>2021-10-22T11:05:50.000Z</time>
      </trkpt>
      <trkpt lat="46.08276" lon="3.6897">
        <ele>420.97</ele>
        <time>2021-10-22T11:06:04.000Z</time>
      </trkpt>
      <trkpt lat="46.08292" lon="3.68955">
        <ele>421.21</ele>
        <time>2021-10-22T11:06:16.000Z</time>
      </trkpt>
      <trkpt lat="46.08309" lon="3.68946">
        <ele>421.4</ele>
        <time>2021-10-22T11:06:28.000Z</time>
      </trkpt>
      <trkpt lat="46.08328" lon="3.68938">
        <ele>423.21</ele>
        <time>2021-10-22T11:06:40.000Z</time>
      </trkpt>
      <trkpt lat="46.08346" lon="3.68927">
        <ele>423.92</ele>
        <time>2021-10-22T11:06:52.000Z</time>
      </trkpt>
      <trkpt lat="46.08362" lon="3.68912">
        <ele>421.64</ele>
        <time>2021-10-22T11:07:10.000Z</time>
      </trkpt>
      <trkpt lat="46.08379" lon="3.68903">
        <ele>421.64</ele>
        <time>2021-10-22T11:07:29.000Z</time>
      </trkpt>
      <trkpt lat="46.08395" lon="3.68889">
        <ele>418.91</ele>
        <time>2021-10-22T11:07:47.000Z</time>
      </trkpt>
      <trkpt lat="46.08413" lon="3.68883">
        <ele>417.44</ele>
        <time>2021-10-22T11:08:01.000Z</time>
      </trkpt>
      <trkpt lat="46.08431" lon="3.6888">
        <ele>416.88</ele>
        <time>2021-10-22T11:08:14.000Z</time>
      </trkpt>
      <trkpt lat="46.08451" lon="3.68882">
        <ele>418.31</ele>
        <time>2021-10-22T11:08:24.000Z</time>
      </trkpt>
      <trkpt lat="46.08469" lon="3.68877">
        <ele>422.26</ele>
        <time>2021-10-22T11:08:38.000Z</time>
      </trkpt>
      <trkpt lat="46.08487" lon="3.68874">
        <ele>425.64</ele>
        <time>2021-10-22T11:08:55.000Z</time>
      </trkpt>
      <trkpt lat="46.08504" lon="3.68862">
        <ele>426.64</ele>
        <time>2021-10-22T11:09:10.000Z</time>
      </trkpt>
      <trkpt lat="46.0852" lon="3.68846">
        <ele>426.54</ele>
        <time>2021-10-22T11:09:22.000Z</time>
      </trkpt>
      <trkpt lat="46.08538" lon="3.68837">
        <ele>426.69</ele>
        <time>2021-10-22T11:09:36.000Z</time>
      </trkpt>
      <trkpt lat="46.08556" lon="3.68826">
        <ele>426.67</ele>
        <time>2021-10-22T11:09:48.000Z</time>
      </trkpt>
      <trkpt lat="46.08567" lon="3.68806">
        <ele>427.79</ele>
        <time>2021-10-22T11:10:02.000Z</time>
      </trkpt>
      <trkpt lat="46.08582" lon="3.68787">
        <ele>429.89</ele>
        <time>2021-10-22T11:10:15.000Z</time>
      </trkpt>
      <trkpt lat="46.08595" lon="3.68769">
        <ele>428.25</ele>
        <time>2021-10-22T11:10:28.000Z</time>
      </trkpt>
      <trkpt lat="46.08609" lon="3.68749">
        <ele>429.77</ele>
        <time>2021-10-22T11:10:47.000Z</time>
      </trkpt>
      <trkpt lat="46.08622" lon="3.68732">
        <ele>427.67</ele>
        <time>2021-10-22T11:11:03.000Z</time>
      </trkpt>
      <trkpt lat="46.08621" lon="3.68705">
        <ele>423.82</ele>
        <time>2021-10-22T11:11:24.000Z</time>
      </trkpt>
      <trkpt lat="46.08605" lon="3.68689">
        <ele>422.54</ele>
        <time>2021-10-22T11:11:37.000Z</time>
      </trkpt>
      <trkpt lat="46.08592" lon="3.6867">
        <ele>421.72</ele>
        <time>2021-10-22T11:11:53.000Z</time>
      </trkpt>
      <trkpt lat="46.08604" lon="3.68648">
        <ele>420.25</ele>
        <time>2021-10-22T11:12:10.000Z</time>
      </trkpt>
      <trkpt lat="46.08621" lon="3.68642">
        <ele>421.39</ele>
        <time>2021-10-22T11:12:25.000Z</time>
      </trkpt>
      <trkpt lat="46.08638" lon="3.68631">
        <ele>420.56</ele>
        <time>2021-10-22T11:12:36.000Z</time>
      </trkpt>
      <trkpt lat="46.08651" lon="3.68613">
        <ele>418.79</ele>
        <time>2021-10-22T11:13:04.000Z</time>
      </trkpt>
      <trkpt lat="46.08656" lon="3.68586">
        <ele>421.18</ele>
        <time>2021-10-22T11:13:18.000Z</time>
      </trkpt>
      <trkpt lat="46.08643" lon="3.68567">
        <ele>422.87</ele>
        <time>2021-10-22T11:13:30.000Z</time>
      </trkpt>
      <trkpt lat="46.08641" lon="3.6854">
        <ele>423.22</ele>
        <time>2021-10-22T11:13:44.000Z</time>
      </trkpt>
      <trkpt lat="46.08628" lon="3.68521">
        <ele>421</ele>
        <time>2021-10-22T11:13:54.000Z</time>
      </trkpt>
      <trkpt lat="46.08614" lon="3.68501">
        <ele>418.19</ele>
        <time>2021-10-22T11:14:15.000Z</time>
      </trkpt>
      <trkpt lat="46.08602" lon="3.6848">
        <ele>419.79</ele>
        <time>2021-10-22T11:14:29.000Z</time>
      </trkpt>
      <trkpt lat="46.08596" lon="3.68455">
        <ele>420.29</ele>
        <time>2021-10-22T11:14:42.000Z</time>
      </trkpt>
      <trkpt lat="46.08599" lon="3.68429">
        <ele>420.27</ele>
        <time>2021-10-22T11:14:55.000Z</time>
      </trkpt>
      <trkpt lat="46.086" lon="3.68402">
        <ele>418.17</ele>
        <time>2021-10-22T11:15:07.000Z</time>
      </trkpt>
      <trkpt lat="46.08601" lon="3.68376">
        <ele>414.9</ele>
        <time>2021-10-22T11:15:21.000Z</time>
      </trkpt>
      <trkpt lat="46.08603" lon="3.68349">
        <ele>411.63</ele>
        <time>2021-10-22T11:15:37.000Z</time>
      </trkpt>
      <trkpt lat="46.08614" lon="3.68327">
        <ele>409.79</ele>
        <time>2021-10-22T11:15:47.000Z</time>
      </trkpt>
      <trkpt lat="46.08627" lon="3.68306">
        <ele>408.17</ele>
        <time>2021-10-22T11:15:56.000Z</time>
      </trkpt>
      <trkpt lat="46.08637" lon="3.68282">
        <ele>408.85</ele>
        <time>2021-10-22T11:16:11.000Z</time>
      </trkpt>
      <trkpt lat="46.08653" lon="3.68268">
        <ele>405.52</ele>
        <time>2021-10-22T11:16:23.000Z</time>
      </trkpt>
      <trkpt lat="46.08667" lon="3.68249">
        <ele>401.88</ele>
        <time>2021-10-22T11:16:39.000Z</time>
      </trkpt>
      <trkpt lat="46.08677" lon="3.68228">
        <ele>402.69</ele>
        <time>2021-10-22T11:16:54.000Z</time>
      </trkpt>
      <trkpt lat="46.08691" lon="3.68211">
        <ele>403.44</ele>
        <time>2021-10-22T11:17:07.000Z</time>
      </trkpt>
      <trkpt lat="46.0871" lon="3.68205">
        <ele>406.15</ele>
        <time>2021-10-22T11:17:22.000Z</time>
      </trkpt>
      <trkpt lat="46.08728" lon="3.68201">
        <ele>405.37</ele>
        <time>2021-10-22T11:17:33.000Z</time>
      </trkpt>
      <trkpt lat="46.08746" lon="3.68191">
        <ele>403.85</ele>
        <time>2021-10-22T11:17:46.000Z</time>
      </trkpt>
      <trkpt lat="46.0876" lon="3.68174">
        <ele>401.69</ele>
        <time>2021-10-22T11:18:01.000Z</time>
      </trkpt>
      <trkpt lat="46.08778" lon="3.68183">
        <ele>403.29</ele>
        <time>2021-10-22T11:18:15.000Z</time>
      </trkpt>
      <trkpt lat="46.08797" lon="3.68176">
        <ele>404.99</ele>
        <time>2021-10-22T11:18:35.000Z</time>
      </trkpt>
      <trkpt lat="46.08814" lon="3.68162">
        <ele>405.89</ele>
        <time>2021-10-22T11:18:49.000Z</time>
      </trkpt>
      <trkpt lat="46.0883" lon="3.68147">
        <ele>406.35</ele>
        <time>2021-10-22T11:19:05.000Z</time>
      </trkpt>
      <trkpt lat="46.08845" lon="3.68131">
        <ele>407.48</ele>
        <time>2021-10-22T11:19:19.000Z</time>
      </trkpt>
      <trkpt lat="46.08861" lon="3.68118">
        <ele>407.14</ele>
        <time>2021-10-22T11:19:30.000Z</time>
      </trkpt>
      <trkpt lat="46.08878" lon="3.68106">
        <ele>404.21</ele>
        <time>2021-10-22T11:19:45.000Z</time>
      </trkpt>
      <trkpt lat="46.08893" lon="3.68092">
        <ele>404.62</ele>
        <time>2021-10-22T11:20:01.000Z</time>
      </trkpt>
      <trkpt lat="46.08909" lon="3.68104">
        <ele>406.15</ele>
        <time>2021-10-22T11:20:20.000Z</time>
      </trkpt>
      <trkpt lat="46.08902" lon="3.6813">
        <ele>408.48</ele>
        <time>2021-10-22T11:20:35.000Z</time>
      </trkpt>
      <trkpt lat="46.08893" lon="3.68153">
        <ele>414.8</ele>
        <time>2021-10-22T11:20:58.000Z</time>
      </trkpt>
      <trkpt lat="46.08878" lon="3.68169">
        <ele>421.77</ele>
        <time>2021-10-22T11:21:13.000Z</time>
      </trkpt>
      <trkpt lat="46.08861" lon="3.6818">
        <ele>423.56</ele>
        <time>2021-10-22T11:21:27.000Z</time>
      </trkpt>
      <trkpt lat="46.08846" lon="3.68196">
        <ele>424.05</ele>
        <time>2021-10-22T11:21:40.000Z</time>
      </trkpt>
      <trkpt lat="46.08829" lon="3.68211">
        <ele>423.09</ele>
        <time>2021-10-22T11:21:56.000Z</time>
      </trkpt>
      <trkpt lat="46.08812" lon="3.68224">
        <ele>424.49</ele>
        <time>2021-10-22T11:22:13.000Z</time>
      </trkpt>
      <trkpt lat="46.08798" lon="3.68241">
        <ele>422.29</ele>
        <time>2021-10-22T11:22:28.000Z</time>
      </trkpt>
      <trkpt lat="46.0879" lon="3.68265">
        <ele>418.78</ele>
        <time>2021-10-22T11:22:43.000Z</time>
      </trkpt>
      <trkpt lat="46.08793" lon="3.68292">
        <ele>415.74</ele>
        <time>2021-10-22T11:23:02.000Z</time>
      </trkpt>
      <trkpt lat="46.08805" lon="3.68312">
        <ele>414.41</ele>
        <time>2021-10-22T11:23:25.000Z</time>
      </trkpt>
      <trkpt lat="46.08821" lon="3.68326">
        <ele>416.53</ele>
        <time>2021-10-22T11:23:48.000Z</time>
      </trkpt>
      <trkpt lat="46.08834" lon="3.68345">
        <ele>420.02</ele>
        <time>2021-10-22T11:24:09.000Z</time>
      </trkpt>
      <trkpt lat="46.0885" lon="3.6836">
        <ele>424.57</ele>
        <time>2021-10-22T11:24:28.000Z</time>
      </trkpt>
      <trkpt lat="46.08868" lon="3.68367">
        <ele>427.25</ele>
        <time>2021-10-22T11:24:47.000Z</time>
      </trkpt>
      <trkpt lat="46.08886" lon="3.6837">
        <ele>428.65</ele>
        <time>2021-10-22T11:25:05.000Z</time>
      </trkpt>
      <trkpt lat="46.08905" lon="3.68376">
        <ele>430.65</ele>
        <time>2021-10-22T11:25:28.000Z</time>
      </trkpt>
      <trkpt lat="46.08923" lon="3.68385">
        <ele>431.63</ele>
        <time>2021-10-22T11:25:47.000Z</time>
      </trkpt>
      <trkpt lat="46.08938" lon="3.68399">
        <ele>431.84</ele>
        <time>2021-10-22T11:26:07.000Z</time>
      </trkpt>
      <trkpt lat="46.0895" lon="3.68418">
        <ele>431.83</ele>
        <time>2021-10-22T11:26:22.000Z</time>
      </trkpt>
      <trkpt lat="46.08965" lon="3.68435">
        <ele>433.38</ele>
        <time>2021-10-22T11:26:42.000Z</time>
      </trkpt>
      <trkpt lat="46.08982" lon="3.68448">
        <ele>435.14</ele>
        <time>2021-10-22T11:27:00.000Z</time>
      </trkpt>
      <trkpt lat="46.08998" lon="3.68461">
        <ele>437.74</ele>
        <time>2021-10-22T11:27:19.000Z</time>
      </trkpt>
      <trkpt lat="46.09014" lon="3.68475">
        <ele>440.74</ele>
        <time>2021-10-22T11:27:39.000Z</time>
      </trkpt>
      <trkpt lat="46.09032" lon="3.68482">
        <ele>444.65</ele>
        <time>2021-10-22T11:27:59.000Z</time>
      </trkpt>
      <trkpt lat="46.0905" lon="3.68489">
        <ele>448.43</ele>
        <time>2021-10-22T11:28:19.000Z</time>
      </trkpt>
      <trkpt lat="46.09068" lon="3.68496">
        <ele>451.64</ele>
        <time>2021-10-22T11:28:37.000Z</time>
      </trkpt>
      <trkpt lat="46.09086" lon="3.68503">
        <ele>453.86</ele>
        <time>2021-10-22T11:28:54.000Z</time>
      </trkpt>
      <trkpt lat="46.09103" lon="3.68514">
        <ele>455.91</ele>
        <time>2021-10-22T11:29:12.000Z</time>
      </trkpt>
      <trkpt lat="46.09119" lon="3.68528">
        <ele>455.08</ele>
        <time>2021-10-22T11:29:26.000Z</time>
      </trkpt>
      <trkpt lat="46.09135" lon="3.6854">
        <ele>452.42</ele>
        <time>2021-10-22T11:29:43.000Z</time>
      </trkpt>
      <trkpt lat="46.09153" lon="3.6854">
        <ele>454.63</ele>
        <time>2021-10-22T11:30:00.000Z</time>
      </trkpt>
      <trkpt lat="46.09171" lon="3.6854">
        <ele>456.5</ele>
        <time>2021-10-22T11:30:18.000Z</time>
      </trkpt>
      <trkpt lat="46.09184" lon="3.68558">
        <ele>457.34</ele>
        <time>2021-10-22T11:30:35.000Z</time>
      </trkpt>
      <trkpt lat="46.09197" lon="3.68577">
        <ele>456.61</ele>
        <time>2021-10-22T11:30:53.000Z</time>
      </trkpt>
      <trkpt lat="46.09213" lon="3.68592">
        <ele>458.72</ele>
        <time>2021-10-22T11:31:09.000Z</time>
      </trkpt>
      <trkpt lat="46.09231" lon="3.68598">
        <ele>464.44</ele>
        <time>2021-10-22T11:31:28.000Z</time>
      </trkpt>
      <trkpt lat="46.09249" lon="3.68611">
        <ele>467.84</ele>
        <time>2021-10-22T11:31:43.000Z</time>
      </trkpt>
      <trkpt lat="46.09264" lon="3.68627">
        <ele>469.79</ele>
        <time>2021-10-22T11:32:01.000Z</time>
      </trkpt>
      <trkpt lat="46.09281" lon="3.68642">
        <ele>470.14</ele>
        <time>2021-10-22T11:32:13.000Z</time>
      </trkpt>
      <trkpt lat="46.09296" lon="3.68656">
        <ele>467.59</ele>
        <time>2021-10-22T11:32:28.000Z</time>
      </trkpt>
      <trkpt lat="46.09313" lon="3.68668">
        <ele>465.26</ele>
        <time>2021-10-22T11:32:42.000Z</time>
      </trkpt>
      <trkpt lat="46.0933" lon="3.6868">
        <ele>465.01</ele>
        <time>2021-10-22T11:32:56.000Z</time>
      </trkpt>
      <trkpt lat="46.09346" lon="3.68691">
        <ele>464.68</ele>
        <time>2021-10-22T11:33:09.000Z</time>
      </trkpt>
      <trkpt lat="46.09364" lon="3.68698">
        <ele>459.7</ele>
        <time>2021-10-22T11:33:58.000Z</time>
      </trkpt>
      <trkpt lat="46.09382" lon="3.68703">
        <ele>454.49</ele>
        <time>2021-10-22T11:34:12.000Z</time>
      </trkpt>
      <trkpt lat="46.094" lon="3.68712">
        <ele>450.52</ele>
        <time>2021-10-22T11:34:25.000Z</time>
      </trkpt>
      <trkpt lat="46.09417" lon="3.68721">
        <ele>449.67</ele>
        <time>2021-10-22T11:34:39.000Z</time>
      </trkpt>
      <trkpt lat="46.09432" lon="3.68736">
        <ele>449.46</ele>
        <time>2021-10-22T11:34:53.000Z</time>
      </trkpt>
      <trkpt lat="46.0944" lon="3.68761">
        <ele>449.84</ele>
        <time>2021-10-22T11:35:05.000Z</time>
      </trkpt>
      <trkpt lat="46.09448" lon="3.68785">
        <ele>449.6</ele>
        <time>2021-10-22T11:35:19.000Z</time>
      </trkpt>
      <trkpt lat="46.09461" lon="3.68804">
        <ele>450.25</ele>
        <time>2021-10-22T11:35:30.000Z</time>
      </trkpt>
      <trkpt lat="46.09475" lon="3.68824">
        <ele>448.89</ele>
        <time>2021-10-22T11:35:45.000Z</time>
      </trkpt>
      <trkpt lat="46.09481" lon="3.68849">
        <ele>450.13</ele>
        <time>2021-10-22T11:36:01.000Z</time>
      </trkpt>
      <trkpt lat="46.09481" lon="3.68875">
        <ele>453.22</ele>
        <time>2021-10-22T11:36:13.000Z</time>
      </trkpt>
      <trkpt lat="46.09473" lon="3.689">
        <ele>456.16</ele>
        <time>2021-10-22T11:36:27.000Z</time>
      </trkpt>
      <trkpt lat="46.09461" lon="3.68922">
        <ele>457.93</ele>
        <time>2021-10-22T11:36:43.000Z</time>
      </trkpt>
      <trkpt lat="46.09444" lon="3.68934">
        <ele>454.86</ele>
        <time>2021-10-22T11:36:57.000Z</time>
      </trkpt>
      <trkpt lat="46.09428" lon="3.68951">
        <ele>452.56</ele>
        <time>2021-10-22T11:37:12.000Z</time>
      </trkpt>
      <trkpt lat="46.09413" lon="3.68966">
        <ele>454.56</ele>
        <time>2021-10-22T11:37:27.000Z</time>
      </trkpt>
      <trkpt lat="46.09401" lon="3.68989">
        <ele>455.31</ele>
        <time>2021-10-22T11:37:40.000Z</time>
      </trkpt>
      <trkpt lat="46.09396" lon="3.69015">
        <ele>456.92</ele>
        <time>2021-10-22T11:37:55.000Z</time>
      </trkpt>
      <trkpt lat="46.0939" lon="3.6904">
        <ele>455.99</ele>
        <time>2021-10-22T11:38:08.000Z</time>
      </trkpt>
      <trkpt lat="46.09382" lon="3.69063">
        <ele>453.78</ele>
        <time>2021-10-22T11:38:21.000Z</time>
      </trkpt>
      <trkpt lat="46.09374" lon="3.69088">
        <ele>451.56</ele>
        <time>2021-10-22T11:38:37.000Z</time>
      </trkpt>
      <trkpt lat="46.09374" lon="3.69114">
        <ele>450.24</ele>
        <time>2021-10-22T11:38:51.000Z</time>
      </trkpt>
      <trkpt lat="46.09378" lon="3.6914">
        <ele>448.71</ele>
        <time>2021-10-22T11:39:04.000Z</time>
      </trkpt>
      <trkpt lat="46.09383" lon="3.69166">
        <ele>446.2</ele>
        <time>2021-10-22T11:39:17.000Z</time>
      </trkpt>
      <trkpt lat="46.09389" lon="3.69192">
        <ele>442.48</ele>
        <time>2021-10-22T11:39:32.000Z</time>
      </trkpt>
      <trkpt lat="46.09395" lon="3.69217">
        <ele>440.77</ele>
        <time>2021-10-22T11:39:47.000Z</time>
      </trkpt>
      <trkpt lat="46.09405" lon="3.69239">
        <ele>442.27</ele>
        <time>2021-10-22T11:40:02.000Z</time>
      </trkpt>
      <trkpt lat="46.09409" lon="3.69266">
        <ele>443.99</ele>
        <time>2021-10-22T11:40:15.000Z</time>
      </trkpt>
      <trkpt lat="46.09401" lon="3.69291">
        <ele>445.59</ele>
        <time>2021-10-22T11:40:28.000Z</time>
      </trkpt>
      <trkpt lat="46.09387" lon="3.69307">
        <ele>450.65</ele>
        <time>2021-10-22T11:41:30.000Z</time>
      </trkpt>
      <trkpt lat="46.09375" lon="3.69329">
        <ele>449.94</ele>
        <time>2021-10-22T11:41:46.000Z</time>
      </trkpt>
      <trkpt lat="46.09364" lon="3.6935">
        <ele>449.07</ele>
        <time>2021-10-22T11:42:00.000Z</time>
      </trkpt>
      <trkpt lat="46.09358" lon="3.69376">
        <ele>449.12</ele>
        <time>2021-10-22T11:42:18.000Z</time>
      </trkpt>
      <trkpt lat="46.09359" lon="3.69402">
        <ele>451.06</ele>
        <time>2021-10-22T11:42:35.000Z</time>
      </trkpt>
      <trkpt lat="46.09365" lon="3.69427">
        <ele>452.84</ele>
        <time>2021-10-22T11:42:54.000Z</time>
      </trkpt>
      <trkpt lat="46.09378" lon="3.69445">
        <ele>456.11</ele>
        <time>2021-10-22T11:43:16.000Z</time>
      </trkpt>
      <trkpt lat="46.09391" lon="3.69463">
        <ele>460.42</ele>
        <time>2021-10-22T11:43:38.000Z</time>
      </trkpt>
      <trkpt lat="46.09406" lon="3.6948">
        <ele>466.06</ele>
        <time>2021-10-22T11:44:00.000Z</time>
      </trkpt>
      <trkpt lat="46.09419" lon="3.69497">
        <ele>469.07</ele>
        <time>2021-10-22T11:44:20.000Z</time>
      </trkpt>
      <trkpt lat="46.09432" lon="3.69515">
        <ele>472.2</ele>
        <time>2021-10-22T11:44:44.000Z</time>
      </trkpt>
      <trkpt lat="46.09446" lon="3.69533">
        <ele>472.34</ele>
        <time>2021-10-22T11:45:02.000Z</time>
      </trkpt>
      <trkpt lat="46.09461" lon="3.6955">
        <ele>476.05</ele>
        <time>2021-10-22T11:45:24.000Z</time>
      </trkpt>
      <trkpt lat="46.09474" lon="3.69568">
        <ele>479.53</ele>
        <time>2021-10-22T11:45:44.000Z</time>
      </trkpt>
      <trkpt lat="46.09488" lon="3.69585">
        <ele>482.05</ele>
        <time>2021-10-22T11:46:05.000Z</time>
      </trkpt>
      <trkpt lat="46.09503" lon="3.69602">
        <ele>484.92</ele>
        <time>2021-10-22T11:46:26.000Z</time>
      </trkpt>
      <trkpt lat="46.09516" lon="3.69619">
        <ele>488.42</ele>
        <time>2021-10-22T11:46:48.000Z</time>
      </trkpt>
      <trkpt lat="46.09529" lon="3.69638">
        <ele>491.96</ele>
        <time>2021-10-22T11:47:28.000Z</time>
      </trkpt>
      <trkpt lat="46.09544" lon="3.69653">
        <ele>494.8</ele>
        <time>2021-10-22T11:47:49.000Z</time>
      </trkpt>
      <trkpt lat="46.09559" lon="3.69669">
        <ele>497.4</ele>
        <time>2021-10-22T11:48:09.000Z</time>
      </trkpt>
      <trkpt lat="46.09569" lon="3.69691">
        <ele>501.13</ele>
        <time>2021-10-22T11:48:53.000Z</time>
      </trkpt>
      <trkpt lat="46.09579" lon="3.69714">
        <ele>504.96</ele>
        <time>2021-10-22T11:51:00.000Z</time>
      </trkpt>
      <trkpt lat="46.09582" lon="3.69739">
        <ele>512.39</ele>
        <time>2021-10-22T11:51:22.000Z</time>
      </trkpt>
      <trkpt lat="46.0958" lon="3.69765">
        <ele>520.21</ele>
        <time>2021-10-22T11:51:51.000Z</time>
      </trkpt>
      <trkpt lat="46.09575" lon="3.69791">
        <ele>528.57</ele>
        <time>2021-10-22T11:52:18.000Z</time>
      </trkpt>
      <trkpt lat="46.09572" lon="3.69817">
        <ele>529.98</ele>
        <time>2021-10-22T11:53:02.000Z</time>
      </trkpt>
      <trkpt lat="46.09563" lon="3.69839">
        <ele>531.06</ele>
        <time>2021-10-22T11:53:22.000Z</time>
      </trkpt>
      <trkpt lat="46.09554" lon="3.69863">
        <ele>533.62</ele>
        <time>2021-10-22T11:53:40.000Z</time>
      </trkpt>
      <trkpt lat="46.09548" lon="3.69888">
        <ele>537.17</ele>
        <time>2021-10-22T11:54:41.000Z</time>
      </trkpt>
      <trkpt lat="46.09545" lon="3.69915">
        <ele>538.77</ele>
        <time>2021-10-22T11:55:04.000Z</time>
      </trkpt>
      <trkpt lat="46.09538" lon="3.6994">
        <ele>540.62</ele>
        <time>2021-10-22T11:55:21.000Z</time>
      </trkpt>
      <trkpt lat="46.09533" lon="3.69967">
        <ele>543.35</ele>
        <time>2021-10-22T11:55:39.000Z</time>
      </trkpt>
      <trkpt lat="46.0953" lon="3.69993">
        <ele>546.77</ele>
        <time>2021-10-22T11:55:57.000Z</time>
      </trkpt>
      <trkpt lat="46.09527" lon="3.7002">
        <ele>549.16</ele>
        <time>2021-10-22T11:56:31.000Z</time>
      </trkpt>
      <trkpt lat="46.09524" lon="3.70046">
        <ele>552.01</ele>
        <time>2021-10-22T11:56:50.000Z</time>
      </trkpt>
      <trkpt lat="46.09529" lon="3.70072">
        <ele>557.02</ele>
        <time>2021-10-22T11:57:09.000Z</time>
      </trkpt>
      <trkpt lat="46.09539" lon="3.70095">
        <ele>558.45</ele>
        <time>2021-10-22T11:57:26.000Z</time>
      </trkpt>
      <trkpt lat="46.09549" lon="3.70117">
        <ele>561.82</ele>
        <time>2021-10-22T11:57:47.000Z</time>
      </trkpt>
      <trkpt lat="46.09561" lon="3.70138">
        <ele>560.68</ele>
        <time>2021-10-22T11:58:11.000Z</time>
      </trkpt>
      <trkpt lat="46.09574" lon="3.70156">
        <ele>558.7</ele>
        <time>2021-10-22T11:58:27.000Z</time>
      </trkpt>
      <trkpt lat="46.09588" lon="3.70174">
        <ele>559.4</ele>
        <time>2021-10-22T11:58:42.000Z</time>
      </trkpt>
      <trkpt lat="46.09603" lon="3.70189">
        <ele>559.19</ele>
        <time>2021-10-22T11:58:57.000Z</time>
      </trkpt>
      <trkpt lat="46.09617" lon="3.70206">
        <ele>561.23</ele>
        <time>2021-10-22T11:59:12.000Z</time>
      </trkpt>
      <trkpt lat="46.09631" lon="3.70223">
        <ele>562.16</ele>
        <time>2021-10-22T11:59:25.000Z</time>
      </trkpt>
      <trkpt lat="46.09644" lon="3.70243">
        <ele>565.5</ele>
        <time>2021-10-22T11:59:39.000Z</time>
      </trkpt>
      <trkpt lat="46.09659" lon="3.70261">
        <ele>568.48</ele>
        <time>2021-10-22T11:59:59.000Z</time>
      </trkpt>
      <trkpt lat="46.09673" lon="3.7028">
        <ele>569.98</ele>
        <time>2021-10-22T12:00:13.000Z</time>
      </trkpt>
      <trkpt lat="46.09688" lon="3.70296">
        <ele>569.4</ele>
        <time>2021-10-22T12:00:27.000Z</time>
      </trkpt>
      <trkpt lat="46.09702" lon="3.70313">
        <ele>571.15</ele>
        <time>2021-10-22T12:00:41.000Z</time>
      </trkpt>
      <trkpt lat="46.09716" lon="3.70332">
        <ele>571.93</ele>
        <time>2021-10-22T12:00:55.000Z</time>
      </trkpt>
      <trkpt lat="46.09728" lon="3.70351">
        <ele>570.52</ele>
        <time>2021-10-22T12:01:08.000Z</time>
      </trkpt>
      <trkpt lat="46.09742" lon="3.7037">
        <ele>571.02</ele>
        <time>2021-10-22T12:01:25.000Z</time>
      </trkpt>
      <trkpt lat="46.09754" lon="3.7039">
        <ele>572.25</ele>
        <time>2021-10-22T12:01:39.000Z</time>
      </trkpt>
      <trkpt lat="46.09767" lon="3.7041">
        <ele>571.27</ele>
        <time>2021-10-22T12:01:53.000Z</time>
      </trkpt>
      <trkpt lat="46.09777" lon="3.70432">
        <ele>571.77</ele>
        <time>2021-10-22T12:02:06.000Z</time>
      </trkpt>
      <trkpt lat="46.09787" lon="3.70455">
        <ele>572.55</ele>
        <time>2021-10-22T12:02:19.000Z</time>
      </trkpt>
      <trkpt lat="46.09796" lon="3.70478">
        <ele>577.92</ele>
        <time>2021-10-22T12:02:44.000Z</time>
      </trkpt>
      <trkpt lat="46.09804" lon="3.70502">
        <ele>583.6</ele>
        <time>2021-10-22T12:03:01.000Z</time>
      </trkpt>
      <trkpt lat="46.09808" lon="3.70534">
        <ele>586.73</ele>
        <time>2021-10-22T12:03:47.000Z</time>
      </trkpt>
      <trkpt lat="46.09814" lon="3.70559">
        <ele>589.02</ele>
        <time>2021-10-22T12:04:10.000Z</time>
      </trkpt>
      <trkpt lat="46.09821" lon="3.70583">
        <ele>590.03</ele>
        <time>2021-10-22T12:04:23.000Z</time>
      </trkpt>
      <trkpt lat="46.0983" lon="3.70608">
        <ele>592.66</ele>
        <time>2021-10-22T12:04:38.000Z</time>
      </trkpt>
      <trkpt lat="46.0984" lon="3.70631">
        <ele>592.59</ele>
        <time>2021-10-22T12:04:47.000Z</time>
      </trkpt>
      <trkpt lat="46.09851" lon="3.70653">
        <ele>590.67</ele>
        <time>2021-10-22T12:04:58.000Z</time>
      </trkpt>
      <trkpt lat="46.09858" lon="3.70678">
        <ele>588.37</ele>
        <time>2021-10-22T12:05:14.000Z</time>
      </trkpt>
      <trkpt lat="46.09865" lon="3.70703">
        <ele>588.05</ele>
        <time>2021-10-22T12:05:26.000Z</time>
      </trkpt>
      <trkpt lat="46.09869" lon="3.70729">
        <ele>589.19</ele>
        <time>2021-10-22T12:05:41.000Z</time>
      </trkpt>
      <trkpt lat="46.09873" lon="3.70756">
        <ele>590.86</ele>
        <time>2021-10-22T12:05:54.000Z</time>
      </trkpt>
      <trkpt lat="46.09873" lon="3.70783">
        <ele>591.8</ele>
        <time>2021-10-22T12:06:09.000Z</time>
      </trkpt>
      <trkpt lat="46.09874" lon="3.7081">
        <ele>594.01</ele>
        <time>2021-10-22T12:06:23.000Z</time>
      </trkpt>
      <trkpt lat="46.09876" lon="3.70836">
        <ele>594.25</ele>
        <time>2021-10-22T12:06:37.000Z</time>
      </trkpt>
      <trkpt lat="46.09878" lon="3.70862">
        <ele>594.72</ele>
        <time>2021-10-22T12:06:50.000Z</time>
      </trkpt>
      <trkpt lat="46.09882" lon="3.70887">
        <ele>593.12</ele>
        <time>2021-10-22T12:07:04.000Z</time>
      </trkpt>
      <trkpt lat="46.09888" lon="3.70913">
        <ele>594.35</ele>
        <time>2021-10-22T12:07:19.000Z</time>
      </trkpt>
      <trkpt lat="46.09897" lon="3.70937">
        <ele>594.13</ele>
        <time>2021-10-22T12:07:33.000Z</time>
      </trkpt>
      <trkpt lat="46.09902" lon="3.70963">
        <ele>596.04</ele>
        <time>2021-10-22T12:07:47.000Z</time>
      </trkpt>
      <trkpt lat="46.09908" lon="3.70988">
        <ele>595.42</ele>
        <time>2021-10-22T12:08:01.000Z</time>
      </trkpt>
      <trkpt lat="46.09913" lon="3.71015">
        <ele>595.01</ele>
        <time>2021-10-22T12:08:15.000Z</time>
      </trkpt>
      <trkpt lat="46.09916" lon="3.71041">
        <ele>594.63</ele>
        <time>2021-10-22T12:08:28.000Z</time>
      </trkpt>
      <trkpt lat="46.09912" lon="3.71068">
        <ele>593.56</ele>
        <time>2021-10-22T12:08:44.000Z</time>
      </trkpt>
      <trkpt lat="46.09912" lon="3.71094">
        <ele>598.39</ele>
        <time>2021-10-22T12:09:50.000Z</time>
      </trkpt>
      <trkpt lat="46.09906" lon="3.71119">
        <ele>597.1</ele>
        <time>2021-10-22T12:10:07.000Z</time>
      </trkpt>
      <trkpt lat="46.09901" lon="3.71146">
        <ele>595.28</ele>
        <time>2021-10-22T12:10:27.000Z</time>
      </trkpt>
      <trkpt lat="46.09896" lon="3.71172">
        <ele>594.52</ele>
        <time>2021-10-22T12:10:45.000Z</time>
      </trkpt>
      <trkpt lat="46.09892" lon="3.71197">
        <ele>592.95</ele>
        <time>2021-10-22T12:11:01.000Z</time>
      </trkpt>
      <trkpt lat="46.0989" lon="3.71224">
        <ele>592.39</ele>
        <time>2021-10-22T12:11:18.000Z</time>
      </trkpt>
      <trkpt lat="46.09883" lon="3.71249">
        <ele>592.3</ele>
        <time>2021-10-22T12:11:34.000Z</time>
      </trkpt>
      <trkpt lat="46.09873" lon="3.71271">
        <ele>591.47</ele>
        <time>2021-10-22T12:11:49.000Z</time>
      </trkpt>
      <trkpt lat="46.09865" lon="3.71296">
        <ele>592.66</ele>
        <time>2021-10-22T12:12:06.000Z</time>
      </trkpt>
      <trkpt lat="46.09854" lon="3.71319">
        <ele>593.3</ele>
        <time>2021-10-22T12:12:22.000Z</time>
      </trkpt>
      <trkpt lat="46.0984" lon="3.71337">
        <ele>590.67</ele>
        <time>2021-10-22T12:12:42.000Z</time>
      </trkpt>
      <trkpt lat="46.0983" lon="3.71358">
        <ele>589.15</ele>
        <time>2021-10-22T12:12:58.000Z</time>
      </trkpt>
      <trkpt lat="46.09818" lon="3.7138">
        <ele>588.93</ele>
        <time>2021-10-22T12:13:12.000Z</time>
      </trkpt>
      <trkpt lat="46.09807" lon="3.71403">
        <ele>593.49</ele>
        <time>2021-10-22T12:13:27.000Z</time>
      </trkpt>
      <trkpt lat="46.09794" lon="3.71421">
        <ele>596.24</ele>
        <time>2021-10-22T12:13:42.000Z</time>
      </trkpt>
      <trkpt lat="46.09782" lon="3.71441">
        <ele>598.22</ele>
        <time>2021-10-22T12:13:56.000Z</time>
      </trkpt>
      <trkpt lat="46.0977" lon="3.71462">
        <ele>599.18</ele>
        <time>2021-10-22T12:14:11.000Z</time>
      </trkpt>
      <trkpt lat="46.09759" lon="3.71484">
        <ele>598.53</ele>
        <time>2021-10-22T12:14:27.000Z</time>
      </trkpt>
      <trkpt lat="46.09751" lon="3.71509">
        <ele>599.13</ele>
        <time>2021-10-22T12:14:41.000Z</time>
      </trkpt>
      <trkpt lat="46.09739" lon="3.71529">
        <ele>600.29</ele>
        <time>2021-10-22T12:14:55.000Z</time>
      </trkpt>
      <trkpt lat="46.09723" lon="3.71547">
        <ele>600.07</ele>
        <time>2021-10-22T12:15:09.000Z</time>
      </trkpt>
      <trkpt lat="46.09708" lon="3.71563">
        <ele>599.95</ele>
        <time>2021-10-22T12:15:23.000Z</time>
      </trkpt>
      <trkpt lat="46.09692" lon="3.71578">
        <ele>601.39</ele>
        <time>2021-10-22T12:15:37.000Z</time>
      </trkpt>
      <trkpt lat="46.09673" lon="3.71581">
        <ele>601.46</ele>
        <time>2021-10-22T12:15:51.000Z</time>
      </trkpt>
      <trkpt lat="46.09655" lon="3.71579">
        <ele>603.6</ele>
        <time>2021-10-22T12:16:05.000Z</time>
      </trkpt>
      <trkpt lat="46.09636" lon="3.71583">
        <ele>605.62</ele>
        <time>2021-10-22T12:16:21.000Z</time>
      </trkpt>
      <trkpt lat="46.09619" lon="3.71592">
        <ele>610.6</ele>
        <time>2021-10-22T12:16:38.000Z</time>
      </trkpt>
      <trkpt lat="46.09605" lon="3.71609">
        <ele>614.56</ele>
        <time>2021-10-22T12:16:57.000Z</time>
      </trkpt>
      <trkpt lat="46.09587" lon="3.71617">
        <ele>615.19</ele>
        <time>2021-10-22T12:17:13.000Z</time>
      </trkpt>
      <trkpt lat="46.09569" lon="3.71623">
        <ele>616.59</ele>
        <time>2021-10-22T12:17:29.000Z</time>
      </trkpt>
      <trkpt lat="46.09551" lon="3.71629">
        <ele>616.5</ele>
        <time>2021-10-22T12:17:44.000Z</time>
      </trkpt>
      <trkpt lat="46.09534" lon="3.71643">
        <ele>619.78</ele>
        <time>2021-10-22T12:18:02.000Z</time>
      </trkpt>
      <trkpt lat="46.09518" lon="3.71654">
        <ele>622.28</ele>
        <time>2021-10-22T12:18:18.000Z</time>
      </trkpt>
      <trkpt lat="46.095" lon="3.71663">
        <ele>622.9</ele>
        <time>2021-10-22T12:18:30.000Z</time>
      </trkpt>
      <trkpt lat="46.09483" lon="3.71672">
        <ele>622.32</ele>
        <time>2021-10-22T12:18:45.000Z</time>
      </trkpt>
      <trkpt lat="46.09465" lon="3.71681">
        <ele>622.44</ele>
        <time>2021-10-22T12:18:58.000Z</time>
      </trkpt>
      <trkpt lat="46.09448" lon="3.71692">
        <ele>619.78</ele>
        <time>2021-10-22T12:19:15.000Z</time>
      </trkpt>
      <trkpt lat="46.09431" lon="3.71704">
        <ele>617.72</ele>
        <time>2021-10-22T12:19:28.000Z</time>
      </trkpt>
      <trkpt lat="46.09415" lon="3.71717">
        <ele>614.28</ele>
        <time>2021-10-22T12:19:41.000Z</time>
      </trkpt>
      <trkpt lat="46.09402" lon="3.71736">
        <ele>611.05</ele>
        <time>2021-10-22T12:19:54.000Z</time>
      </trkpt>
      <trkpt lat="46.09387" lon="3.7175">
        <ele>608.53</ele>
        <time>2021-10-22T12:20:08.000Z</time>
      </trkpt>
      <trkpt lat="46.09372" lon="3.71767">
        <ele>607.44</ele>
        <time>2021-10-22T12:20:21.000Z</time>
      </trkpt>
      <trkpt lat="46.09358" lon="3.71783">
        <ele>606.22</ele>
        <time>2021-10-22T12:20:38.000Z</time>
      </trkpt>
      <trkpt lat="46.09343" lon="3.71798">
        <ele>606.33</ele>
        <time>2021-10-22T12:20:52.000Z</time>
      </trkpt>
      <trkpt lat="46.09325" lon="3.71807">
        <ele>607.73</ele>
        <time>2021-10-22T12:21:06.000Z</time>
      </trkpt>
      <trkpt lat="46.09307" lon="3.71803">
        <ele>607.11</ele>
        <time>2021-10-22T12:21:22.000Z</time>
      </trkpt>
      <trkpt lat="46.09289" lon="3.71796">
        <ele>606.65</ele>
        <time>2021-10-22T12:21:34.000Z</time>
      </trkpt>
      <trkpt lat="46.0927" lon="3.71792">
        <ele>607.07</ele>
        <time>2021-10-22T12:21:48.000Z</time>
      </trkpt>
      <trkpt lat="46.09254" lon="3.71778">
        <ele>605.96</ele>
        <time>2021-10-22T12:22:02.000Z</time>
      </trkpt>
      <trkpt lat="46.0924" lon="3.71756">
        <ele>605.76</ele>
        <time>2021-10-22T12:22:12.000Z</time>
      </trkpt>
      <trkpt lat="46.09227" lon="3.71736">
        <ele>598.32</ele>
        <time>2021-10-22T12:22:27.000Z</time>
      </trkpt>
      <trkpt lat="46.0921" lon="3.71724">
        <ele>596.41</ele>
        <time>2021-10-22T12:22:56.000Z</time>
      </trkpt>
      <trkpt lat="46.09191" lon="3.71722">
        <ele>598.59</ele>
        <time>2021-10-22T12:23:08.000Z</time>
      </trkpt>
      <trkpt lat="46.09174" lon="3.71735">
        <ele>599.01</ele>
        <time>2021-10-22T12:23:21.000Z</time>
      </trkpt>
      <trkpt lat="46.09157" lon="3.71745">
        <ele>597.1</ele>
        <time>2021-10-22T12:23:33.000Z</time>
      </trkpt>
      <trkpt lat="46.0914" lon="3.71754">
        <ele>595.05</ele>
        <time>2021-10-22T12:23:46.000Z</time>
      </trkpt>
      <trkpt lat="46.09123" lon="3.71767">
        <ele>593.63</ele>
        <time>2021-10-22T12:24:02.000Z</time>
      </trkpt>
      <trkpt lat="46.0911" lon="3.71786">
        <ele>588.9</ele>
        <time>2021-10-22T12:24:20.000Z</time>
      </trkpt>
      <trkpt lat="46.09097" lon="3.71805">
        <ele>589.78</ele>
        <time>2021-10-22T12:24:33.000Z</time>
      </trkpt>
      <trkpt lat="46.09084" lon="3.71824">
        <ele>588.97</ele>
        <time>2021-10-22T12:24:47.000Z</time>
      </trkpt>
      <trkpt lat="46.09071" lon="3.71844">
        <ele>586.38</ele>
        <time>2021-10-22T12:25:01.000Z</time>
      </trkpt>
      <trkpt lat="46.09057" lon="3.71862">
        <ele>586.28</ele>
        <time>2021-10-22T12:25:16.000Z</time>
      </trkpt>
      <trkpt lat="46.09039" lon="3.71868">
        <ele>583.47</ele>
        <time>2021-10-22T12:25:29.000Z</time>
      </trkpt>
      <trkpt lat="46.0902" lon="3.7187">
        <ele>581.64</ele>
        <time>2021-10-22T12:25:45.000Z</time>
      </trkpt>
      <trkpt lat="46.09001" lon="3.71869">
        <ele>580.05</ele>
        <time>2021-10-22T12:26:00.000Z</time>
      </trkpt>
      <trkpt lat="46.08982" lon="3.71872">
        <ele>577.96</ele>
        <time>2021-10-22T12:26:16.000Z</time>
      </trkpt>
      <trkpt lat="46.08963" lon="3.71874">
        <ele>578.34</ele>
        <time>2021-10-22T12:26:30.000Z</time>
      </trkpt>
      <trkpt lat="46.08945" lon="3.71873">
        <ele>577.59</ele>
        <time>2021-10-22T12:26:43.000Z</time>
      </trkpt>
      <trkpt lat="46.08927" lon="3.7187">
        <ele>576.03</ele>
        <time>2021-10-22T12:26:58.000Z</time>
      </trkpt>
      <trkpt lat="46.0891" lon="3.71861">
        <ele>572.77</ele>
        <time>2021-10-22T12:27:14.000Z</time>
      </trkpt>
      <trkpt lat="46.08889" lon="3.71864">
        <ele>567.58</ele>
        <time>2021-10-22T12:27:30.000Z</time>
      </trkpt>
      <trkpt lat="46.0888" lon="3.71887">
        <ele>564.25</ele>
        <time>2021-10-22T12:27:56.000Z</time>
      </trkpt>
      <trkpt lat="46.08884" lon="3.71913">
        <ele>563.39</ele>
        <time>2021-10-22T12:28:12.000Z</time>
      </trkpt>
      <trkpt lat="46.0889" lon="3.71937">
        <ele>561.05</ele>
        <time>2021-10-22T12:28:24.000Z</time>
      </trkpt>
      <trkpt lat="46.08872" lon="3.71945">
        <ele>556.29</ele>
        <time>2021-10-22T12:28:34.000Z</time>
      </trkpt>
      <trkpt lat="46.08854" lon="3.71955">
        <ele>551.6</ele>
        <time>2021-10-22T12:28:46.000Z</time>
      </trkpt>
      <trkpt lat="46.08838" lon="3.71966">
        <ele>546.5</ele>
        <time>2021-10-22T12:29:02.000Z</time>
      </trkpt>
      <trkpt lat="46.08821" lon="3.71976">
        <ele>544.36</ele>
        <time>2021-10-22T12:29:19.000Z</time>
      </trkpt>
      <trkpt lat="46.08804" lon="3.71966">
        <ele>542.19</ele>
        <time>2021-10-22T12:29:32.000Z</time>
      </trkpt>
      <trkpt lat="46.08795" lon="3.71943">
        <ele>539.44</ele>
        <time>2021-10-22T12:29:46.000Z</time>
      </trkpt>
      <trkpt lat="46.08783" lon="3.71923">
        <ele>536.36</ele>
        <time>2021-10-22T12:30:07.000Z</time>
      </trkpt>
      <trkpt lat="46.08769" lon="3.71907">
        <ele>534.5</ele>
        <time>2021-10-22T12:30:20.000Z</time>
      </trkpt>
      <trkpt lat="46.08756" lon="3.71887">
        <ele>533.63</ele>
        <time>2021-10-22T12:30:34.000Z</time>
      </trkpt>
      <trkpt lat="46.08744" lon="3.71867">
        <ele>531.36</ele>
        <time>2021-10-22T12:30:52.000Z</time>
      </trkpt>
      <trkpt lat="46.08736" lon="3.71843">
        <ele>529.77</ele>
        <time>2021-10-22T12:31:03.000Z</time>
      </trkpt>
      <trkpt lat="46.08734" lon="3.71815">
        <ele>528.97</ele>
        <time>2021-10-22T12:31:15.000Z</time>
      </trkpt>
      <trkpt lat="46.0874" lon="3.71789">
        <ele>529.93</ele>
        <time>2021-10-22T12:31:30.000Z</time>
      </trkpt>
      <trkpt lat="46.08749" lon="3.71764">
        <ele>529.16</ele>
        <time>2021-10-22T12:31:46.000Z</time>
      </trkpt>
      <trkpt lat="46.08764" lon="3.71749">
        <ele>525.28</ele>
        <time>2021-10-22T12:32:00.000Z</time>
      </trkpt>
      <trkpt lat="46.08778" lon="3.71732">
        <ele>521.92</ele>
        <time>2021-10-22T12:32:13.000Z</time>
      </trkpt>
      <trkpt lat="46.08794" lon="3.71715">
        <ele>521</ele>
        <time>2021-10-22T12:32:28.000Z</time>
      </trkpt>
      <trkpt lat="46.088" lon="3.71689">
        <ele>522.73</ele>
        <time>2021-10-22T12:32:59.000Z</time>
      </trkpt>
      <trkpt lat="46.08794" lon="3.71664">
        <ele>527.1</ele>
        <time>2021-10-22T12:33:38.000Z</time>
      </trkpt>
      <trkpt lat="46.08782" lon="3.71645">
        <ele>527.53</ele>
        <time>2021-10-22T12:34:05.000Z</time>
      </trkpt>
      <trkpt lat="46.08773" lon="3.71621">
        <ele>525.83</ele>
        <time>2021-10-22T12:34:21.000Z</time>
      </trkpt>
      <trkpt lat="46.08762" lon="3.71601">
        <ele>524.62</ele>
        <time>2021-10-22T12:34:38.000Z</time>
      </trkpt>
      <trkpt lat="46.08747" lon="3.71584">
        <ele>522.38</ele>
        <time>2021-10-22T12:35:23.000Z</time>
      </trkpt>
      <trkpt lat="46.08729" lon="3.71579">
        <ele>521.15</ele>
        <time>2021-10-22T12:35:39.000Z</time>
      </trkpt>
      <trkpt lat="46.0871" lon="3.71577">
        <ele>520</ele>
        <time>2021-10-22T12:35:53.000Z</time>
      </trkpt>
      <trkpt lat="46.08694" lon="3.71563">
        <ele>518.8</ele>
        <time>2021-10-22T12:36:08.000Z</time>
      </trkpt>
      <trkpt lat="46.0868" lon="3.71544">
        <ele>515.83</ele>
        <time>2021-10-22T12:36:22.000Z</time>
      </trkpt>
      <trkpt lat="46.08666" lon="3.71527">
        <ele>515.89</ele>
        <time>2021-10-22T12:36:37.000Z</time>
      </trkpt>
      <trkpt lat="46.08655" lon="3.71504">
        <ele>515.73</ele>
        <time>2021-10-22T12:36:49.000Z</time>
      </trkpt>
      <trkpt lat="46.08641" lon="3.71487">
        <ele>515.68</ele>
        <time>2021-10-22T12:37:05.000Z</time>
      </trkpt>
      <trkpt lat="46.08627" lon="3.71469">
        <ele>515.79</ele>
        <time>2021-10-22T12:37:17.000Z</time>
      </trkpt>
      <trkpt lat="46.08609" lon="3.71463">
        <ele>517.67</ele>
        <time>2021-10-22T12:37:40.000Z</time>
      </trkpt>
      <trkpt lat="46.08592" lon="3.71452">
        <ele>517.49</ele>
        <time>2021-10-22T12:37:52.000Z</time>
      </trkpt>
      <trkpt lat="46.08576" lon="3.71438">
        <ele>517.02</ele>
        <time>2021-10-22T12:38:09.000Z</time>
      </trkpt>
      <trkpt lat="46.08561" lon="3.71423">
        <ele>516.78</ele>
        <time>2021-10-22T12:38:24.000Z</time>
      </trkpt>
      <trkpt lat="46.08544" lon="3.71414">
        <ele>514.53</ele>
        <time>2021-10-22T12:38:41.000Z</time>
      </trkpt>
      <trkpt lat="46.08532" lon="3.71394">
        <ele>509.56</ele>
        <time>2021-10-22T12:38:57.000Z</time>
      </trkpt>
      <trkpt lat="46.08515" lon="3.71385">
        <ele>505.91</ele>
        <time>2021-10-22T12:39:13.000Z</time>
      </trkpt>
      <trkpt lat="46.08497" lon="3.71375">
        <ele>504.06</ele>
        <time>2021-10-22T12:39:26.000Z</time>
      </trkpt>
      <trkpt lat="46.08481" lon="3.7136">
        <ele>502.67</ele>
        <time>2021-10-22T12:39:40.000Z</time>
      </trkpt>
      <trkpt lat="46.0847" lon="3.7134">
        <ele>500.04</ele>
        <time>2021-10-22T12:40:02.000Z</time>
      </trkpt>
      <trkpt lat="46.08453" lon="3.71329">
        <ele>497.97</ele>
        <time>2021-10-22T12:40:18.000Z</time>
      </trkpt>
      <trkpt lat="46.08435" lon="3.71322">
        <ele>494.14</ele>
        <time>2021-10-22T12:40:39.000Z</time>
      </trkpt>
      <trkpt lat="46.08417" lon="3.71315">
        <ele>491.05</ele>
        <time>2021-10-22T12:40:54.000Z</time>
      </trkpt>
      <trkpt lat="46.08401" lon="3.71303">
        <ele>489.97</ele>
        <time>2021-10-22T12:41:11.000Z</time>
      </trkpt>
      <trkpt lat="46.08381" lon="3.71303">
        <ele>489.73</ele>
        <time>2021-10-22T12:41:28.000Z</time>
      </trkpt>
      <trkpt lat="46.08364" lon="3.7129">
        <ele>489.93</ele>
        <time>2021-10-22T12:41:49.000Z</time>
      </trkpt>
      <trkpt lat="46.08346" lon="3.71283">
        <ele>487.63</ele>
        <time>2021-10-22T12:42:08.000Z</time>
      </trkpt>
      <trkpt lat="46.08328" lon="3.71286">
        <ele>483.75</ele>
        <time>2021-10-22T12:42:28.000Z</time>
      </trkpt>
      <trkpt lat="46.08314" lon="3.71304">
        <ele>482.4</ele>
        <time>2021-10-22T12:42:57.000Z</time>
      </trkpt>
      <trkpt lat="46.08299" lon="3.71321">
        <ele>480.97</ele>
        <time>2021-10-22T12:43:17.000Z</time>
      </trkpt>
      <trkpt lat="46.08279" lon="3.71327">
        <ele>481.03</ele>
        <time>2021-10-22T12:43:28.000Z</time>
      </trkpt>
      <trkpt lat="46.08262" lon="3.71335">
        <ele>481.03</ele>
        <time>2021-10-22T12:43:41.000Z</time>
      </trkpt>
      <trkpt lat="46.08247" lon="3.71352">
        <ele>480.27</ele>
        <time>2021-10-22T12:44:06.000Z</time>
      </trkpt>
      <trkpt lat="46.08228" lon="3.71355">
        <ele>480.79</ele>
        <time>2021-10-22T12:44:25.000Z</time>
      </trkpt>
      <trkpt lat="46.0821" lon="3.71347">
        <ele>482.6</ele>
        <time>2021-10-22T12:44:38.000Z</time>
      </trkpt>
      <trkpt lat="46.08193" lon="3.71335">
        <ele>484.2</ele>
        <time>2021-10-22T12:44:50.000Z</time>
      </trkpt>
      <trkpt lat="46.08178" lon="3.71319">
        <ele>486.53</ele>
        <time>2021-10-22T12:45:03.000Z</time>
      </trkpt>
      <trkpt lat="46.08162" lon="3.71307">
        <ele>485.68</ele>
        <time>2021-10-22T12:45:17.000Z</time>
      </trkpt>
      <trkpt lat="46.08145" lon="3.71318">
        <ele>480.58</ele>
        <time>2021-10-22T12:46:11.000Z</time>
      </trkpt>
      <trkpt lat="46.08132" lon="3.71335">
        <ele>486.31</ele>
        <time>2021-10-22T12:46:28.000Z</time>
      </trkpt>
      <trkpt lat="46.08125" lon="3.71361">
        <ele>485.79</ele>
        <time>2021-10-22T12:47:24.000Z</time>
      </trkpt>
      <trkpt lat="46.08115" lon="3.71382">
        <ele>486.82</ele>
        <time>2021-10-22T12:47:41.000Z</time>
      </trkpt>
      <trkpt lat="46.08096" lon="3.71392">
        <ele>487.56</ele>
        <time>2021-10-22T12:47:52.000Z</time>
      </trkpt>
      <trkpt lat="46.08077" lon="3.71398">
        <ele>487.9</ele>
        <time>2021-10-22T12:48:03.000Z</time>
      </trkpt>
      <trkpt lat="46.08059" lon="3.71396">
        <ele>487.79</ele>
        <time>2021-10-22T12:48:14.000Z</time>
      </trkpt>
      <trkpt lat="46.08049" lon="3.71373">
        <ele>484.41</ele>
        <time>2021-10-22T12:48:27.000Z</time>
      </trkpt>
      <trkpt lat="46.08045" lon="3.71346">
        <ele>483.92</ele>
        <time>2021-10-22T12:48:41.000Z</time>
      </trkpt>
      <trkpt lat="46.08034" lon="3.71325">
        <ele>473.12</ele>
        <time>2021-10-22T12:49:03.000Z</time>
      </trkpt>
      <trkpt lat="46.08024" lon="3.71302">
        <ele>472</ele>
        <time>2021-10-22T12:49:23.000Z</time>
      </trkpt>
      <trkpt lat="46.08009" lon="3.71285">
        <ele>472.92</ele>
        <time>2021-10-22T12:49:43.000Z</time>
      </trkpt>
      <trkpt lat="46.07994" lon="3.71269">
        <ele>475.36</ele>
        <time>2021-10-22T12:50:00.000Z</time>
      </trkpt>
      <trkpt lat="46.07982" lon="3.71248">
        <ele>473.77</ele>
        <time>2021-10-22T12:50:12.000Z</time>
      </trkpt>
      <trkpt lat="46.07966" lon="3.71237">
        <ele>466.74</ele>
        <time>2021-10-22T12:50:23.000Z</time>
      </trkpt>
      <trkpt lat="46.07967" lon="3.7121">
        <ele>473.83</ele>
        <time>2021-10-22T12:50:42.000Z</time>
      </trkpt>
      <trkpt lat="46.07955" lon="3.7119">
        <ele>468.21</ele>
        <time>2021-10-22T12:51:38.000Z</time>
      </trkpt>
      <trkpt lat="46.07952" lon="3.71164">
        <ele>461.91</ele>
        <time>2021-10-22T12:51:50.000Z</time>
      </trkpt>
      <trkpt lat="46.07947" lon="3.71139">
        <ele>456.18</ele>
        <time>2021-10-22T12:52:04.000Z</time>
      </trkpt>
      <trkpt lat="46.07937" lon="3.71117">
        <ele>459.77</ele>
        <time>2021-10-22T12:52:19.000Z</time>
      </trkpt>
      <trkpt lat="46.07927" lon="3.71094">
        <ele>462.73</ele>
        <time>2021-10-22T12:52:32.000Z</time>
      </trkpt>
      <trkpt lat="46.07923" lon="3.71069">
        <ele>466.15</ele>
        <time>2021-10-22T12:52:45.000Z</time>
      </trkpt>
      <trkpt lat="46.07918" lon="3.71042">
        <ele>467.08</ele>
        <time>2021-10-22T12:52:56.000Z</time>
      </trkpt>
      <trkpt lat="46.07906" lon="3.71021">
        <ele>463.81</ele>
        <time>2021-10-22T12:53:13.000Z</time>
      </trkpt>
      <trkpt lat="46.07899" lon="3.70997">
        <ele>460.64</ele>
        <time>2021-10-22T12:53:25.000Z</time>
      </trkpt>
      <trkpt lat="46.07893" lon="3.7097">
        <ele>456.32</ele>
        <time>2021-10-22T12:53:40.000Z</time>
      </trkpt>
      <trkpt lat="46.07884" lon="3.70947">
        <ele>454.22</ele>
        <time>2021-10-22T12:53:54.000Z</time>
      </trkpt>
      <trkpt lat="46.07876" lon="3.70923">
        <ele>453.22</ele>
        <time>2021-10-22T12:54:07.000Z</time>
      </trkpt>
      <trkpt lat="46.07868" lon="3.70899">
        <ele>453.71</ele>
        <time>2021-10-22T12:54:19.000Z</time>
      </trkpt>
      <trkpt lat="46.07863" lon="3.70873">
        <ele>457.38</ele>
        <time>2021-10-22T12:54:30.000Z</time>
      </trkpt>
      <trkpt lat="46.07858" lon="3.70847">
        <ele>455.68</ele>
        <time>2021-10-22T12:54:43.000Z</time>
      </trkpt>
      <trkpt lat="46.0785" lon="3.70823">
        <ele>454.16</ele>
        <time>2021-10-22T12:54:56.000Z</time>
      </trkpt>
      <trkpt lat="46.07846" lon="3.70795">
        <ele>454.87</ele>
        <time>2021-10-22T12:55:12.000Z</time>
      </trkpt>
      <trkpt lat="46.07842" lon="3.70769">
        <ele>455.61</ele>
        <time>2021-10-22T12:55:25.000Z</time>
      </trkpt>
      <trkpt lat="46.07833" lon="3.70746">
        <ele>456.55</ele>
        <time>2021-10-22T12:55:40.000Z</time>
      </trkpt>
      <trkpt lat="46.07826" lon="3.70722">
        <ele>457.08</ele>
        <time>2021-10-22T12:55:53.000Z</time>
      </trkpt>
      <trkpt lat="46.07821" lon="3.70695">
        <ele>456.97</ele>
        <time>2021-10-22T12:56:04.000Z</time>
      </trkpt>
      <trkpt lat="46.07811" lon="3.70674">
        <ele>454.74</ele>
        <time>2021-10-22T12:56:16.000Z</time>
      </trkpt>
      <trkpt lat="46.078" lon="3.7065">
        <ele>453.23</ele>
        <time>2021-10-22T12:56:31.000Z</time>
      </trkpt>
      <trkpt lat="46.07788" lon="3.70629">
        <ele>451.5</ele>
        <time>2021-10-22T12:56:46.000Z</time>
      </trkpt>
      <trkpt lat="46.07777" lon="3.70608">
        <ele>450.38</ele>
        <time>2021-10-22T12:56:59.000Z</time>
      </trkpt>
      <trkpt lat="46.07764" lon="3.70587">
        <ele>448.76</ele>
        <time>2021-10-22T12:57:09.000Z</time>
      </trkpt>
      <trkpt lat="46.07754" lon="3.70565">
        <ele>446.19</ele>
        <time>2021-10-22T12:57:23.000Z</time>
      </trkpt>
      <trkpt lat="46.07741" lon="3.70547">
        <ele>442.12</ele>
        <time>2021-10-22T12:57:36.000Z</time>
      </trkpt>
      <trkpt lat="46.07726" lon="3.70531">
        <ele>442.41</ele>
        <time>2021-10-22T12:57:49.000Z</time>
      </trkpt>
      <trkpt lat="46.07708" lon="3.70521">
        <ele>442.42</ele>
        <time>2021-10-22T12:58:01.000Z</time>
      </trkpt>
      <trkpt lat="46.07693" lon="3.70507">
        <ele>445.6</ele>
        <time>2021-10-22T12:58:18.000Z</time>
      </trkpt>
      <trkpt lat="46.07677" lon="3.70492">
        <ele>445.48</ele>
        <time>2021-10-22T12:58:31.000Z</time>
      </trkpt>
      <trkpt lat="46.07664" lon="3.70473">
        <ele>446.34</ele>
        <time>2021-10-22T12:58:45.000Z</time>
      </trkpt>
      <trkpt lat="46.07649" lon="3.70457">
        <ele>447.45</ele>
        <time>2021-10-22T12:59:04.000Z</time>
      </trkpt>
      <trkpt lat="46.07636" lon="3.70439">
        <ele>446.13</ele>
        <time>2021-10-22T12:59:15.000Z</time>
      </trkpt>
      <trkpt lat="46.07619" lon="3.70427">
        <ele>445.57</ele>
        <time>2021-10-22T12:59:30.000Z</time>
      </trkpt>
      <trkpt lat="46.07602" lon="3.70417">
        <ele>445.6</ele>
        <time>2021-10-22T12:59:43.000Z</time>
      </trkpt>
      <trkpt lat="46.07584" lon="3.70409">
        <ele>448.27</ele>
        <time>2021-10-22T12:59:58.000Z</time>
      </trkpt>
      <trkpt lat="46.07571" lon="3.70392">
        <ele>451.77</ele>
        <time>2021-10-22T13:00:10.000Z</time>
      </trkpt>
      <trkpt lat="46.07568" lon="3.70365">
        <ele>453.17</ele>
        <time>2021-10-22T13:00:23.000Z</time>
      </trkpt>
      <trkpt lat="46.07569" lon="3.70338">
        <ele>452</ele>
        <time>2021-10-22T13:00:36.000Z</time>
      </trkpt>
      <trkpt lat="46.07564" lon="3.70312">
        <ele>451.23</ele>
        <time>2021-10-22T13:00:50.000Z</time>
      </trkpt>
      <trkpt lat="46.0756" lon="3.70286">
        <ele>451.63</ele>
        <time>2021-10-22T13:01:05.000Z</time>
      </trkpt>
      <trkpt lat="46.07557" lon="3.70259">
        <ele>448.04</ele>
        <time>2021-10-22T13:01:16.000Z</time>
      </trkpt>
      <trkpt lat="46.07553" lon="3.70232">
        <ele>444.27</ele>
        <time>2021-10-22T13:01:29.000Z</time>
      </trkpt>
      <trkpt lat="46.07552" lon="3.70206">
        <ele>443.98</ele>
        <time>2021-10-22T13:01:42.000Z</time>
      </trkpt>
      <trkpt lat="46.07552" lon="3.7018">
        <ele>438.77</ele>
        <time>2021-10-22T13:01:53.000Z</time>
      </trkpt>
      <trkpt lat="46.07548" lon="3.70153">
        <ele>438.93</ele>
        <time>2021-10-22T13:02:07.000Z</time>
      </trkpt>
      <trkpt lat="46.07538" lon="3.7013">
        <ele>441.71</ele>
        <time>2021-10-22T13:02:22.000Z</time>
      </trkpt>
      <trkpt lat="46.07528" lon="3.70109">
        <ele>443.22</ele>
        <time>2021-10-22T13:02:36.000Z</time>
      </trkpt>
      <trkpt lat="46.07517" lon="3.70086">
        <ele>443.26</ele>
        <time>2021-10-22T13:02:50.000Z</time>
      </trkpt>
      <trkpt lat="46.07503" lon="3.70067">
        <ele>443.41</ele>
        <time>2021-10-22T13:03:02.000Z</time>
      </trkpt>
      <trkpt lat="46.07495" lon="3.70044">
        <ele>444.1</ele>
        <time>2021-10-22T13:03:14.000Z</time>
      </trkpt>
      <trkpt lat="46.07492" lon="3.70015">
        <ele>443.58</ele>
        <time>2021-10-22T13:03:27.000Z</time>
      </trkpt>
      <trkpt lat="46.07491" lon="3.69988">
        <ele>438.08</ele>
        <time>2021-10-22T13:03:38.000Z</time>
      </trkpt>
      <trkpt lat="46.07487" lon="3.69962">
        <ele>432.34</ele>
        <time>2021-10-22T13:03:52.000Z</time>
      </trkpt>
      <trkpt lat="46.07497" lon="3.69939">
        <ele>429.42</ele>
        <time>2021-10-22T13:04:05.000Z</time>
      </trkpt>
      <trkpt lat="46.07514" lon="3.69927">
        <ele>428.56</ele>
        <time>2021-10-22T13:04:19.000Z</time>
      </trkpt>
      <trkpt lat="46.07532" lon="3.6992">
        <ele>430.15</ele>
        <time>2021-10-22T13:04:32.000Z</time>
      </trkpt>
      <trkpt lat="46.0755" lon="3.69916">
        <ele>433.44</ele>
        <time>2021-10-22T13:04:47.000Z</time>
      </trkpt>
    </trkseg>
  </trk>
</gpx>